Monday, November 20, 2017, 4:21 AM EST

KEZF, Fredericksburg, Shannon Airport

Location: Fredericksburg, VA, United States Lat: 38.267
Local Time: 4:21 AM EST ( 9:21 GMT) Lon: -77.45
Time Zone: US/Eastern Elev: 85 ft

Show me the last for .
Show Decoded

2017-11-20 03:55 METAR KEZF 200855Z AUTO 24003KT 10SM CLR 00/M02 A3007 RMK AO2 T10011023 =
2017-11-20 03:35 METAR KEZF 200835Z AUTO 23004KT 10SM CLR 00/M02 A3007 RMK AO2 T00001018 =
2017-11-20 03:15 METAR KEZF 200815Z AUTO 21004KT 10SM CLR 00/M02 A3007 RMK AO2 T00011024 =
2017-11-20 02:55 METAR KEZF 200755Z AUTO 24003KT 10SM CLR 01/M02 A3007 RMK AO2 T00061025 =
2017-11-20 02:35 METAR KEZF 200735Z AUTO 23004KT 10SM CLR 00/M02 A3006 RMK AO2 T00021021 =
2017-11-20 02:15 METAR KEZF 200715Z AUTO 00000KT 10SM CLR 01/M02 A3005 RMK AO2 T00131024 =
2017-11-20 01:55 METAR KEZF 200655Z AUTO 27004KT 10SM CLR 02/M02 A3004 RMK AO2 T00191023 =
2017-11-20 01:35 METAR KEZF 200635Z AUTO 24003KT 10SM CLR 02/M02 A3004 RMK AO2 T00191017 =
2017-11-20 01:15 METAR KEZF 200615Z AUTO 21003KT 10SM CLR 02/M02 A3002 RMK AO2 T00241025 =
2017-11-20 00:55 METAR KEZF 200555Z AUTO 24004KT 10SM CLR 04/M03 A3001 RMK AO2 T00401031 10081
                 20040 401670040 =
2017-11-20 00:35 METAR KEZF 200535Z AUTO 25007KT 10SM CLR 04/M03 A3000 RMK AO2 T00431031 =
2017-11-20 00:15 METAR KEZF 200515Z AUTO 25005KT 10SM CLR 05/M03 A2999 RMK AO2 T00511034 =
2017-11-19 23:55 METAR KEZF 200455Z AUTO 24004KT 10SM CLR 04/M03 A2999 RMK AO2 T00441028 =
2017-11-19 23:35 METAR KEZF 200435Z AUTO 25003KT 10SM CLR 06/M03 A2998 RMK AO2 T00581035 =
2017-11-19 23:15 METAR KEZF 200415Z AUTO 30005KT 10SM CLR 07/M04 A2998 RMK AO2 T00651036 =
2017-11-19 22:55 METAR KEZF 200355Z AUTO 27008KT 10SM SCT070 07/M03 A2998 RMK AO2 T00651031 =
2017-11-19 22:35 METAR KEZF 200335Z AUTO 29005KT 10SM BKN070 07/M03 A2997 RMK AO2 T00661030 =
2017-11-19 22:15 METAR KEZF 200315Z AUTO 29007KT 10SM BKN070 06/M03 A2996 RMK AO2 T00621028 =
2017-11-19 21:55 METAR KEZF 200255Z AUTO 27004KT 10SM SCT070 06/M03 A2995 RMK AO2 T00601029 =
2017-11-19 21:35 METAR KEZF 200235Z AUTO 24004KT 10SM OVC070 07/M03 A2994 RMK AO2 T00681031 =
2017-11-19 21:15 METAR KEZF 200215Z AUTO 24005KT 10SM OVC070 07/M03 A2994 RMK AO2 T00691030 =
2017-11-19 20:55 METAR KEZF 200155Z AUTO 26006KT 10SM BKN070 07/M03 A2993 RMK AO2 T00661030 =
2017-11-19 20:30 METAR KEZF 200130Z AUTO 24003KT 10SM SCT070 06/M02 A2993 RMK AO2 T00631025 =
2017-11-19 20:15 METAR KEZF 200115Z AUTO 25003KT 10SM SCT070 07/M03 A2992 RMK AO2 T00701030 =
2017-11-19 19:55 METAR KEZF 200055Z AUTO 24004KT 10SM SCT070 08/M03 A2991 RMK AO2 T00751030 =
2017-11-19 19:35 METAR KEZF 200035Z AUTO 27007KT 10SM BKN070 08/M03 A2991 RMK AO2 T00801031 =
2017-11-19 19:15 METAR KEZF 200015Z AUTO 28008KT 10SM BKN070 08/M03 A2990 RMK AO2 T00811031 =
2017-11-19 18:55 METAR KEZF 192355Z AUTO 29009KT 10SM SCT070 08/M03 A2989 RMK AO2 T00781031 10132
                 20077 =
2017-11-19 18:35 METAR KEZF 192335Z AUTO 30006KT 10SM BKN070 08/M03 A2988 RMK AO2 T00801030 =
2017-11-19 18:15 METAR KEZF 192315Z AUTO 30009G14KT 10SM BKN070 08/M03 A2988 RMK AO2 T00811029 =
2017-11-19 17:55 METAR KEZF 192255Z AUTO 31011G15KT 10SM SCT070 08/M03 A2987 RMK AO2 T00811028 =
2017-11-19 17:35 METAR KEZF 192235Z AUTO 31005G08KT 10SM BKN070 09/M03 A2986 RMK AO2 T00851027 =
2017-11-19 17:15 METAR KEZF 192215Z AUTO 31010G15KT 10SM BKN075 BKN080 09/M03 A2985 RMK AO2
                 T00881026 =
2017-11-19 16:55 METAR KEZF 192155Z AUTO 30011G20KT 10SM SCT075 09/M03 A2984 RMK AO2 T00911030 =
2017-11-19 16:35 METAR KEZF 192135Z AUTO 30016G26KT 10SM SCT075 10/M03 A2983 RMK AO2 T00951031 =
2017-11-19 16:15 METAR KEZF 192115Z AUTO 30012G26KT 10SM CLR 10/M03 A2982 RMK AO2 T01001033 =
2017-11-19 15:55 METAR KEZF 192055Z AUTO 31012G20KT 10SM SCT075 11/M01 A2980 RMK AO2 T01111015 =
2017-11-19 15:35 METAR KEZF 192035Z AUTO 32007G17KT 10SM BKN075 11/M01 A2979 RMK AO2 T01101008 =
2017-11-19 15:15 METAR KEZF 192015Z AUTO 33007G17KT 10SM CLR 11/M01 A2977 RMK AO2 T01091009 =
2017-11-19 14:55 METAR KEZF 191955Z AUTO 30015G20KT 10SM SCT070 12/M02 A2975 RMK AO2 T01171020 =
2017-11-19 14:35 METAR KEZF 191935Z AUTO 28012G21KT 260V320 10SM SCT070 13/M02 A2975 RMK AO2
                 T01301017 =
2017-11-19 14:10 METAR KEZF 191910Z AUTO 28016G23KT 10SM SCT070 SCT120 13/M02 A2973 RMK AO2
                 T01291016 =
2017-11-19 13:55 METAR KEZF 191855Z AUTO 30013G21KT 10SM CLR 13/M01 A2973 RMK AO2 T01301011 =
2017-11-19 13:35 METAR KEZF 191835Z AUTO 28012G17KT 10SM CLR 13/M01 A2974 RMK AO2 T01321006 =
2017-11-19 13:15 METAR KEZF 191815Z AUTO 33010G18KT 10SM CLR 13/M01 A2973 RMK AO2 T01271009 =
2017-11-19 12:55 METAR KEZF 191755Z AUTO 32014G20KT 10SM CLR 13/M01 A2974 RMK AO2 T01271010 10135
                 20115 =
2017-11-19 12:35 METAR KEZF 191735Z AUTO 31007G19KT 10SM CLR 13/M01 A2973 RMK AO2 T01311007 =
2017-11-19 12:15 METAR KEZF 191715Z AUTO 30013G22KT 10SM CLR 13/M01 A2973 RMK AO2 T01311010 =
2017-11-19 11:55 METAR KEZF 191655Z AUTO 30009G20KT 10SM SCT065 13/00 A2974 RMK AO2 T01341002 =
2017-11-19 11:35 METAR KEZF 191635Z AUTO 29011G21KT 250V330 10SM CLR 13/M01 A2974 RMK AO2
                 T01281006 =
2017-11-19 11:15 METAR KEZF 191615Z AUTO 29013G24KT 10SM CLR 13/M01 A2973 RMK AO2 T01251006 =
2017-11-19 10:55 METAR KEZF 191555Z AUTO 29013G21KT 10SM CLR 12/M01 A2974 RMK AO2 T01211006 =
2017-11-19 10:35 METAR KEZF 191535Z AUTO 30009G17KT 10SM CLR 13/00 A2973 RMK AO2 T01250000 =
2017-11-19 10:15 METAR KEZF 191515Z AUTO 33012G21KT 10SM CLR 12/00 A2972 RMK AO2 T01230002 =
2017-11-19 09:55 METAR KEZF 191455Z AUTO 31016G22KT 290V350 10SM CLR 12/00 A2971 RMK AO2
                 T01220003 =
2017-11-19 09:35 METAR KEZF 191435Z AUTO 32010G19KT 10SM CLR 12/00 A2971 RMK AO2 T01200004 =
2017-11-19 09:15 METAR KEZF 191415Z AUTO 29010G26KT 10SM CLR 12/00 A2969 RMK AO2 T01160004 =
2017-11-19 08:55 METAR KEZF 191355Z AUTO 30018G25KT 10SM CLR 12/00 A2968 RMK AO2 T01170002 =
2017-11-19 08:35 METAR KEZF 191335Z AUTO 30012G18KT 10SM CLR 12/01 A2967 RMK AO2 T01160009 =
2017-11-19 08:15 METAR KEZF 191315Z AUTO 31012G21KT 10SM CLR 12/01 A2965 RMK AO2 T01150006 =
2017-11-19 07:55 METAR KEZF 191255Z AUTO 31011G20KT 10SM CLR 12/01 A2965 RMK AO2 T01150007 =
2017-11-19 07:35 METAR KEZF 191235Z AUTO 31022G33KT 10SM CLR 12/01 A2962 RMK AO2 T01150008 =
2017-11-19 07:15 METAR KEZF 191215Z AUTO 30016G24KT 10SM CLR 12/02 A2960 RMK AO2 T01180021 =
2017-11-19 06:55 METAR KEZF 191155Z AUTO 32012G23KT 10SM SCT060 12/02 A2957 RMK AO2 60001 70001
                 T01230024 10167 20123 =
2017-11-19 06:35 METAR KEZF 191135Z AUTO 31015G21KT 10SM OVC060 14/04 A2955 RMK AO2 T01350036 =
2017-11-19 06:15 METAR KEZF 191115Z AUTO 28012G19KT 10SM SCT060 14/04 A2953 RMK AO2 T01400036 =
2017-11-19 05:55 METAR KEZF 191055Z AUTO 29012G24KT 270V330 10SM CLR 15/04 A2950 RMK AO2
                 T01450040 =
2017-11-19 05:35 METAR KEZF 191035Z AUTO 29017G25KT 10SM CLR 16/06 A2947 RMK AO2 T01550055 =
2017-11-19 05:15 METAR KEZF 191015Z AUTO 26015G23KT 10SM SCT055 SCT075 SCT090 16/11 A2945 RMK AO2
                 T01610110 =
2017-11-19 04:55 METAR KEZF 190955Z AUTO 24017G24KT 10SM SCT070 BKN075 BKN090 16/13 A2942 RMK AO2
                 T01620125 =
2017-11-19 04:35 METAR KEZF 190935Z AUTO 24015G23KT 10SM -RA SCT034 BKN070 OVC080 16/13 A2940 RMK
                 AO2 T01610131 =

Support USWX by starting your Amazon purchase here.